createdAt,value
2018-03-29T00:01:37.483Z,1.30
2018-03-29T00:04:04.114Z,0.70
2018-03-29T00:06:30.321Z,0.80
2018-03-29T00:08:56.552Z,2.17
2018-03-29T00:11:22.753Z,1.30
2018-03-29T00:13:49.003Z,1.45
2018-03-29T00:16:15.235Z,1.33
2018-03-29T00:18:41.487Z,1.40
2018-03-29T00:21:08.066Z,1.30
2018-03-29T00:23:34.295Z,2.00
2018-03-29T00:26:00.515Z,1.87
2018-03-29T00:28:26.746Z,2.00
2018-03-29T00:30:52.973Z,1.42
2018-03-29T00:33:19.213Z,1.65
2018-03-29T00:35:45.437Z,2.15
2018-03-29T00:38:11.678Z,1.90
2018-03-29T00:40:37.913Z,1.80
2018-03-29T00:43:04.189Z,1.52
2018-03-29T00:45:30.788Z,1.80
2018-03-29T00:47:56.987Z,1.95
2018-03-29T00:50:23.270Z,1.98
2018-03-29T00:52:49.515Z,2.28
2018-03-29T00:55:16.112Z,1.73
2018-03-29T00:57:43.561Z,2.70
2018-03-29T01:00:09.849Z,2.17
2018-03-29T01:02:36.097Z,2.50
2018-03-29T01:05:02.342Z,1.70
2018-03-29T01:07:28.573Z,1.95
2018-03-29T01:09:54.812Z,2.00
2018-03-29T01:12:21.030Z,2.08
2018-03-29T01:14:47.266Z,2.08
2018-03-29T01:17:13.513Z,2.85
2018-03-29T01:19:39.768Z,2.20
2018-03-29T01:22:06.013Z,2.97
2018-03-29T01:24:32.213Z,2.12
2018-03-29T01:26:58.437Z,2.40
2018-03-29T01:29:25.035Z,2.60
2018-03-29T01:31:51.294Z,2.55
2018-03-29T01:34:17.490Z,2.20
2018-03-29T01:36:43.754Z,2.90
2018-03-29T01:39:09.968Z,2.58
2018-03-29T01:41:36.189Z,2.30
2018-03-29T01:44:02.432Z,4.07
2018-03-29T01:46:28.641Z,2.20
2018-03-29T01:48:54.864Z,3.20
2018-03-29T01:51:21.118Z,2.67
2018-03-29T01:53:47.717Z,3.17
2018-03-29T01:56:13.958Z,3.10
2018-03-29T01:58:40.188Z,3.10
2018-03-29T02:01:06.424Z,2.58
2018-03-29T02:03:32.639Z,2.35
2018-03-29T02:05:58.884Z,2.97
2018-03-29T02:08:25.106Z,2.85
2018-03-29T02:10:51.314Z,2.55
2018-03-29T02:13:17.543Z,2.50
2018-03-29T02:15:43.761Z,3.00
2018-03-29T02:18:09.984Z,3.10
2018-03-29T02:20:36.205Z,2.30
2018-03-29T02:23:02.422Z,2.60
2018-03-29T02:25:28.623Z,2.50
2018-03-29T02:27:55.212Z,2.90
2018-03-29T02:30:21.423Z,2.72
2018-03-29T02:32:47.643Z,3.28
2018-03-29T02:35:13.863Z,2.65
2018-03-29T02:37:40.112Z,3.33
2018-03-29T02:40:06.325Z,3.00
2018-03-29T02:42:32.571Z,2.80
2018-03-29T02:44:58.791Z,3.03
2018-03-29T02:47:25.033Z,3.05
2018-03-29T02:49:51.261Z,4.18
2018-03-29T02:52:18.232Z,2.72
2018-03-29T02:54:45.360Z,2.90
2018-03-29T02:57:11.612Z,2.78
2018-03-29T02:59:37.837Z,3.22
2018-03-29T03:02:04.059Z,2.95
2018-03-29T03:04:30.308Z,2.75
2018-03-29T03:06:56.898Z,3.35
2018-03-29T03:09:23.154Z,4.30
2018-03-29T03:11:49.419Z,2.72
2018-03-29T03:14:16.026Z,3.20
2018-03-29T03:16:42.245Z,2.58
2018-03-29T03:19:08.491Z,3.55
2018-03-29T03:21:34.706Z,2.95
2018-03-29T03:24:00.896Z,3.30
2018-03-29T03:26:27.141Z,3.08
2018-03-29T03:28:53.369Z,3.97
2018-03-29T03:31:19.623Z,8.20
2018-03-29T03:33:45.878Z,5.68
2018-03-29T03:36:12.479Z,4.30
2018-03-29T03:38:38.672Z,3.42
2018-03-29T03:41:04.914Z,3.20
2018-03-29T03:43:31.129Z,3.40
2018-03-29T03:45:57.338Z,3.87
2018-03-29T03:48:23.581Z,4.03
2018-03-29T03:50:49.812Z,3.65
2018-03-29T03:53:16.081Z,3.65
2018-03-29T03:55:42.279Z,3.30
2018-03-29T03:58:08.522Z,3.45
2018-03-29T04:00:35.700Z,5.00
2018-03-29T04:03:01.943Z,3.62
2018-03-29T04:05:28.161Z,3.33
2018-03-29T04:07:54.396Z,3.65
2018-03-29T04:10:20.640Z,3.72
2018-03-29T04:12:46.854Z,4.18
2018-03-29T04:15:13.113Z,4.18
2018-03-29T04:17:39.642Z,4.10
2018-03-29T04:20:05.888Z,3.15
2018-03-29T04:22:32.083Z,3.80
2018-03-29T04:24:58.686Z,3.80
2018-03-29T04:27:24.916Z,4.18
2018-03-29T04:29:51.109Z,3.62
2018-03-29T04:32:17.358Z,4.00
2018-03-29T04:34:43.582Z,3.72
2018-03-29T04:37:09.815Z,4.20
2018-03-29T04:39:36.044Z,3.53
2018-03-29T04:42:02.276Z,6.78
2018-03-29T04:44:28.485Z,4.75
2018-03-29T04:46:54.717Z,3.60
2018-03-29T04:49:20.945Z,3.58
2018-03-29T04:51:47.219Z,4.20
2018-03-29T04:54:13.847Z,4.18
2018-03-29T04:56:40.447Z,4.57
2018-03-29T04:59:06.713Z,4.15
2018-03-29T05:01:33.339Z,4.47
2018-03-29T05:03:59.556Z,6.62
2018-03-29T05:06:25.789Z,3.90
2018-03-29T05:08:52.047Z,4.50
2018-03-29T05:11:18.670Z,4.32
2018-03-29T05:13:45.299Z,4.50
2018-03-29T05:16:11.545Z,4.55
2018-03-29T05:18:37.753Z,5.05
2018-03-29T05:21:04.747Z,4.05
2018-03-29T05:23:30.980Z,4.18
2018-03-29T05:26:03.351Z,3.85
2018-03-29T05:28:29.594Z,3.80
2018-03-29T05:30:55.838Z,4.60
2018-03-29T05:33:22.095Z,4.40
2018-03-29T05:35:48.668Z,4.40
2018-03-29T05:38:14.898Z,5.50
2018-03-29T05:40:41.106Z,4.97
2018-03-29T05:43:07.352Z,4.62
2018-03-29T05:45:33.592Z,4.15
2018-03-29T05:47:59.806Z,4.78
2018-03-29T05:50:26.040Z,5.30
2018-03-29T05:52:52.307Z,4.65
2018-03-29T05:55:18.565Z,4.62
2018-03-29T05:57:45.178Z,3.90
2018-03-29T06:00:11.461Z,4.65
2018-03-29T06:02:37.673Z,3.42
2018-03-29T06:05:04.568Z,7.00
2018-03-29T06:07:30.776Z,3.90
2018-03-29T06:09:56.998Z,4.40
2018-03-29T06:12:23.222Z,7.70
2018-03-29T06:14:49.423Z,5.30
2018-03-29T06:17:21.663Z,5.03
2018-03-29T06:19:47.916Z,4.82
2018-03-29T06:22:14.182Z,5.05
2018-03-29T06:24:40.398Z,4.57
2018-03-29T06:27:06.646Z,3.78
2018-03-29T06:29:32.893Z,4.78
2018-03-29T06:31:59.113Z,5.95
2018-03-29T06:34:25.361Z,4.50
2018-03-29T06:36:51.559Z,5.22
2018-03-29T06:39:17.792Z,4.87
2018-03-29T06:41:44.017Z,5.55
2018-03-29T06:44:10.242Z,4.72
2018-03-29T06:46:36.488Z,4.87
2018-03-29T06:49:02.770Z,5.28
2018-03-29T06:51:29.011Z,6.05
2018-03-29T06:53:56.236Z,5.15
2018-03-29T06:56:22.483Z,4.50
2018-03-29T06:58:48.714Z,3.62
2018-03-29T07:01:14.974Z,4.35
2018-03-29T07:03:41.224Z,4.80
2018-03-29T07:06:07.479Z,4.70
2018-03-29T07:08:33.696Z,4.20
2018-03-29T07:11:00.321Z,4.68
2018-03-29T07:13:26.577Z,5.07
2018-03-29T07:15:52.803Z,4.57
2018-03-29T07:18:19.037Z,4.22
2018-03-29T07:20:45.298Z,5.07
2018-03-29T07:23:11.517Z,4.40
2018-03-29T07:25:37.753Z,4.35
2018-03-29T07:28:04.008Z,4.90
2018-03-29T07:30:30.260Z,5.03
2018-03-29T07:32:56.832Z,6.55
2018-03-29T07:35:23.107Z,4.70
2018-03-29T07:37:50.341Z,3.95
2018-03-29T07:40:16.579Z,5.93
2018-03-29T07:42:42.807Z,5.12
2018-03-29T07:45:09.018Z,5.70
2018-03-29T07:47:35.266Z,4.65
2018-03-29T07:50:01.516Z,7.60
2018-03-29T07:52:28.167Z,3.75
2018-03-29T07:54:54.418Z,4.80
2018-03-29T07:57:20.690Z,4.70
2018-03-29T07:59:46.915Z,4.00
2018-03-29T08:02:13.180Z,3.35
2018-03-29T08:04:39.460Z,3.42
2018-03-29T08:07:05.689Z,3.17
2018-03-29T08:09:31.900Z,3.62
2018-03-29T08:11:58.124Z,3.67
2018-03-29T08:14:24.377Z,4.55
2018-03-29T08:16:50.636Z,4.43
2018-03-29T08:19:16.857Z,4.78
2018-03-29T08:21:43.522Z,4.10
2018-03-29T08:24:09.782Z,4.15
2018-03-29T08:26:36.067Z,3.67
2018-03-29T08:29:02.297Z,4.10
2018-03-29T08:31:28.498Z,11.60
2018-03-29T08:33:54.749Z,5.22
2018-03-29T08:36:20.993Z,3.42
2018-03-29T08:38:47.292Z,4.15
2018-03-29T08:41:13.924Z,3.62
2018-03-29T08:43:40.191Z,3.33
2018-03-29T08:46:06.462Z,3.80
2018-03-29T08:48:32.748Z,3.83
2018-03-29T08:50:58.968Z,3.95
2018-03-29T08:53:25.248Z,3.65
2018-03-29T08:55:52.288Z,3.80
2018-03-29T08:58:18.492Z,4.40
2018-03-29T09:00:44.749Z,4.07
2018-03-29T09:03:11.010Z,3.85
2018-03-29T09:05:37.645Z,3.20
2018-03-29T09:08:04.234Z,3.40
2018-03-29T09:10:30.475Z,5.10
2018-03-29T09:12:56.690Z,4.30
2018-03-29T09:15:22.994Z,3.72
2018-03-29T09:17:49.231Z,3.08
2018-03-29T09:20:15.471Z,4.55
2018-03-29T09:22:41.708Z,5.05
2018-03-29T09:25:07.992Z,4.50
2018-03-29T09:27:34.251Z,4.12
2018-03-29T09:30:00.479Z,4.45
2018-03-29T09:32:26.724Z,4.10
2018-03-29T09:34:52.943Z,6.25
2018-03-29T09:37:19.169Z,3.50
2018-03-29T09:39:45.426Z,4.03
2018-03-29T09:42:11.624Z,4.25
2018-03-29T09:44:37.857Z,4.47
2018-03-29T09:47:04.108Z,5.15
2018-03-29T09:49:30.316Z,3.60
2018-03-29T09:51:56.571Z,5.68
2018-03-29T09:54:22.816Z,4.57
2018-03-29T09:56:49.037Z,5.28
2018-03-29T09:59:15.278Z,4.30
2018-03-29T10:01:42.792Z,3.45
2018-03-29T10:04:11.884Z,7.90
2018-03-29T10:06:40.974Z,4.30
2018-03-29T10:09:07.201Z,5.30
2018-03-29T10:11:33.489Z,3.85
2018-03-29T10:13:59.754Z,4.75
2018-03-29T10:16:25.994Z,4.82
2018-03-29T10:18:52.276Z,4.68
2018-03-29T10:21:18.891Z,4.60
2018-03-29T10:23:45.121Z,4.25
2018-03-29T10:26:11.342Z,5.05
2018-03-29T10:28:37.610Z,4.53
2018-03-29T10:31:03.925Z,4.87
2018-03-29T10:33:30.157Z,4.70
2018-03-29T10:35:56.837Z,3.58
2018-03-29T10:38:23.116Z,3.72
2018-03-29T10:40:49.350Z,4.57
2018-03-29T10:43:15.979Z,3.83
2018-03-29T10:45:42.598Z,4.97
2018-03-29T10:48:08.839Z,4.15
2018-03-29T10:50:35.507Z,3.30
2018-03-29T10:53:01.739Z,3.60
2018-03-29T10:55:27.987Z,2.92
2018-03-29T10:57:54.238Z,3.05
2018-03-29T11:00:20.517Z,3.15
2018-03-29T11:02:46.737Z,3.35
2018-03-29T11:05:13.014Z,2.65
2018-03-29T11:07:39.270Z,2.33
2018-03-29T11:10:05.864Z,3.30
2018-03-29T11:12:32.122Z,3.63
2018-03-29T11:14:58.391Z,3.77
2018-03-29T11:17:24.660Z,4.45
2018-03-29T11:19:51.905Z,4.05
2018-03-29T11:22:18.183Z,4.13
2018-03-29T11:24:44.419Z,4.90
2018-03-29T11:27:17.478Z,4.40
2018-03-29T11:29:43.715Z,3.57
2018-03-29T11:32:09.934Z,3.90
2018-03-29T11:34:36.160Z,5.53
2018-03-29T11:37:02.365Z,3.93
2018-03-29T11:39:28.640Z,4.03
2018-03-29T11:41:54.906Z,3.53
2018-03-29T11:44:21.146Z,3.90
2018-03-29T11:46:47.367Z,3.77
2018-03-29T11:49:13.616Z,3.80
2018-03-29T11:51:39.855Z,3.30
2018-03-29T11:54:06.081Z,3.43
2018-03-29T11:56:32.359Z,3.30
2018-03-29T11:58:58.619Z,3.87
2018-03-29T12:01:24.858Z,3.77
2018-03-29T12:03:52.076Z,4.13
2018-03-29T12:06:18.307Z,4.07
2018-03-29T12:08:44.535Z,4.30
2018-03-29T12:11:10.794Z,4.20
2018-03-29T12:13:37.005Z,5.03
2018-03-29T12:16:03.263Z,4.70
2018-03-29T12:18:29.518Z,4.93
2018-03-29T12:20:56.132Z,5.05
2018-03-29T12:23:22.393Z,5.00
2018-03-29T12:25:49.063Z,4.37
2018-03-29T12:28:15.332Z,3.90
2018-03-29T12:30:41.585Z,4.50
2018-03-29T12:33:07.869Z,4.73
2018-03-29T12:35:34.125Z,6.70
2018-03-29T12:38:00.379Z,4.70
2018-03-29T12:40:27.030Z,4.93
2018-03-29T12:42:53.302Z,3.97
2018-03-29T12:45:19.540Z,4.10
2018-03-29T12:47:45.796Z,3.70
2018-03-29T12:50:12.040Z,3.70
2018-03-29T12:52:38.292Z,4.00
2018-03-29T12:55:16.890Z,4.17
2018-03-29T12:57:55.319Z,3.70
2018-03-29T13:00:21.629Z,3.58
2018-03-29T13:02:47.876Z,3.37
2018-03-29T13:05:14.104Z,4.65
2018-03-29T13:07:40.353Z,3.30
2018-03-29T13:10:06.607Z,3.10
2018-03-29T13:12:32.881Z,3.80
2018-03-29T13:14:59.129Z,4.30
2018-03-29T13:17:25.385Z,3.63
2018-03-29T13:19:51.620Z,4.27
2018-03-29T13:22:17.874Z,3.57
2018-03-29T13:24:44.513Z,4.43
2018-03-29T13:27:11.106Z,4.63
2018-03-29T13:29:37.368Z,4.27
2018-03-29T13:32:03.644Z,3.90
2018-03-29T13:34:29.936Z,3.60
2018-03-29T13:36:56.217Z,4.27
2018-03-29T13:39:22.440Z,4.37
2018-03-29T13:41:48.693Z,4.10
2018-03-29T13:44:14.982Z,4.60
2018-03-29T13:46:41.237Z,3.50
2018-03-29T13:49:07.471Z,3.53
2018-03-29T13:51:33.716Z,2.60
2018-03-29T13:53:59.956Z,3.80
2018-03-29T13:56:26.184Z,4.20
2018-03-29T13:58:52.458Z,3.40
2018-03-29T14:01:18.701Z,4.27
2018-03-29T14:03:44.972Z,4.03
2018-03-29T14:06:11.602Z,3.67
2018-03-29T14:08:38.254Z,4.00
2018-03-29T14:11:04.855Z,4.00
2018-03-29T14:13:31.928Z,3.70
2018-03-29T14:15:58.553Z,3.80
2018-03-29T14:18:24.814Z,3.80
2018-03-29T14:20:51.072Z,3.47
2018-03-29T14:23:17.296Z,3.27
2018-03-29T14:25:43.532Z,3.73
2018-03-29T14:28:09.783Z,3.60
2018-03-29T14:30:36.015Z,3.97
2018-03-29T14:33:02.261Z,3.90
2018-03-29T14:35:28.545Z,4.10
2018-03-29T14:37:54.795Z,4.30
2018-03-29T14:40:21.091Z,3.87
2018-03-29T14:42:47.426Z,3.72
2018-03-29T14:45:13.691Z,4.10
2018-03-29T14:47:39.956Z,4.95
2018-03-29T14:50:06.247Z,4.82
2018-03-29T14:52:32.514Z,3.50
2018-03-29T14:54:58.798Z,3.85
2018-03-29T14:57:25.109Z,4.32
2018-03-29T14:59:51.429Z,4.62
2018-03-29T15:02:17.663Z,4.15
2018-03-29T15:04:43.923Z,4.07
2018-03-29T15:07:10.205Z,3.85
2018-03-29T15:09:36.483Z,3.65
2018-03-29T15:12:02.748Z,2.80
2018-03-29T15:14:29.876Z,3.10
2018-03-29T15:16:56.150Z,4.15
2018-03-29T15:19:22.404Z,4.03
2018-03-29T15:21:48.788Z,3.67
2018-03-29T15:24:15.368Z,3.42
2018-03-29T15:26:41.650Z,3.25
2018-03-29T15:29:08.282Z,3.33
2018-03-29T15:31:34.941Z,3.67
2018-03-29T15:34:01.520Z,4.55
2018-03-29T15:36:27.804Z,3.95
2018-03-29T15:38:54.454Z,3.70
2018-03-29T15:41:27.574Z,5.15
2018-03-29T15:43:53.879Z,4.82
2018-03-29T15:46:20.135Z,5.68
2018-03-29T15:48:46.369Z,4.85
2018-03-29T15:51:12.609Z,4.68
2018-03-29T15:53:38.930Z,5.87
2018-03-29T15:56:05.258Z,5.12
2018-03-29T15:58:31.527Z,6.80
2018-03-29T16:00:57.829Z,4.68
2018-03-29T16:03:24.105Z,4.53
2018-03-29T16:05:50.502Z,5.37
2018-03-29T16:08:17.132Z,5.00
2018-03-29T16:10:43.821Z,4.60
2018-03-29T16:13:10.091Z,5.00
2018-03-29T16:15:36.354Z,4.75
2018-03-29T16:18:02.729Z,4.70
2018-03-29T16:20:29.011Z,4.70
2018-03-29T16:22:56.159Z,4.85
2018-03-29T16:25:22.843Z,5.28
2018-03-29T16:27:49.136Z,5.57
2018-03-29T16:30:15.418Z,5.82
2018-03-29T16:32:41.681Z,6.57
2018-03-29T16:35:08.296Z,7.70
2018-03-29T16:37:34.586Z,7.95
2018-03-29T16:40:00.860Z,7.40
2018-03-29T16:42:27.145Z,5.43
2018-03-29T16:44:53.385Z,5.75
2018-03-29T16:47:19.740Z,5.28
2018-03-29T16:49:45.973Z,5.10
2018-03-29T16:52:12.269Z,4.75
2018-03-29T16:54:38.544Z,8.00
2018-03-29T16:57:05.184Z,7.03
2018-03-29T16:59:31.845Z,5.93
2018-03-29T17:01:58.134Z,5.00
2018-03-29T17:04:24.393Z,5.03
2018-03-29T17:06:50.673Z,6.32
2018-03-29T17:09:16.959Z,6.12
2018-03-29T17:11:43.263Z,6.10
2018-03-29T17:14:09.576Z,5.75
2018-03-29T17:16:35.797Z,8.43
2018-03-29T17:19:02.081Z,6.25
2018-03-29T17:21:28.385Z,6.53
2018-03-29T17:23:55.027Z,6.03
2018-03-29T17:28:54.421Z,6.28
2018-03-29T17:31:20.669Z,5.25
2018-03-29T17:33:46.962Z,5.00
2018-03-29T17:36:13.253Z,5.05
2018-03-29T17:38:39.508Z,5.47
2018-03-29T17:41:05.772Z,6.15
2018-03-29T17:43:32.051Z,4.95
2018-03-29T17:45:58.348Z,4.70
2018-03-29T17:48:24.612Z,5.15
2018-03-29T17:50:50.900Z,7.22
2018-03-29T17:53:17.161Z,5.70
2018-03-29T17:55:43.395Z,5.15
2018-03-29T17:58:09.661Z,6.05
2018-03-29T18:00:35.951Z,5.85
2018-03-29T18:03:02.223Z,5.65
2018-03-29T18:05:28.550Z,5.70
2018-03-29T18:07:54.796Z,6.18
2018-03-29T18:10:21.072Z,6.37
2018-03-29T18:12:47.435Z,5.82
2018-03-29T18:15:13.686Z,7.07
2018-03-29T18:17:40.333Z,6.07
2018-03-29T18:20:07.007Z,6.97
2018-03-29T18:22:33.258Z,6.55
2018-03-29T18:24:59.531Z,7.37
2018-03-29T18:27:25.801Z,7.53
2018-03-29T18:29:52.067Z,8.32
2018-03-29T18:32:18.363Z,8.02
2018-03-29T18:34:44.618Z,7.70
2018-03-29T18:37:10.904Z,7.30
2018-03-29T18:39:37.180Z,6.20
2018-03-29T18:42:03.483Z,7.70
2018-03-29T18:44:29.745Z,7.28
2018-03-29T18:46:56.014Z,8.40
2018-03-29T18:49:22.304Z,8.70
2018-03-29T18:51:48.562Z,7.40
2018-03-29T18:54:14.855Z,9.23
2018-03-29T18:56:41.133Z,9.85
2018-03-29T18:59:07.425Z,10.48
2018-03-29T19:01:33.728Z,11.02
2018-03-29T19:04:00.057Z,10.80
2018-03-29T19:06:26.315Z,12.65
2018-03-29T19:08:52.548Z,11.52
2018-03-29T19:11:18.866Z,10.23
2018-03-29T19:13:45.110Z,10.00
2018-03-29T19:16:11.419Z,10.88
2018-03-29T19:18:37.683Z,11.68
2018-03-29T19:21:03.979Z,10.25
2018-03-29T19:23:30.225Z,9.77
2018-03-29T19:25:56.857Z,10.68
2018-03-29T19:28:23.514Z,10.93
2018-03-29T19:30:49.783Z,11.80
2018-03-29T19:33:16.091Z,10.20
2018-03-29T19:35:42.354Z,10.38
2018-03-29T19:38:08.670Z,9.30
2018-03-29T19:40:34.951Z,9.13
2018-03-29T19:43:01.273Z,9.77
2018-03-29T19:45:27.954Z,8.20
2018-03-29T19:47:54.205Z,9.13
2018-03-29T19:50:20.520Z,9.95
2018-03-29T19:52:46.802Z,10.23
2018-03-29T19:55:13.112Z,9.90
2018-03-29T19:57:39.387Z,11.00
2018-03-29T20:00:05.689Z,10.90
2018-03-29T20:02:32.402Z,13.50
2018-03-29T20:04:58.698Z,11.40
2018-03-29T20:07:24.993Z,13.45
2018-03-29T20:09:51.646Z,14.95
2018-03-29T20:12:17.909Z,14.50
2018-03-29T20:14:44.176Z,18.70
2018-03-29T20:17:10.421Z,19.60
2018-03-29T20:19:36.736Z,19.52
2018-03-29T20:22:03.012Z,14.25
2018-03-29T20:24:29.311Z,19.83
2018-03-29T20:26:55.552Z,22.65
2018-03-29T20:29:21.812Z,17.45
2018-03-29T20:31:48.061Z,17.42
2018-03-29T20:34:14.361Z,14.48
2018-03-29T20:36:40.659Z,15.10
2018-03-29T20:39:07.231Z,13.85
2018-03-29T20:41:33.534Z,13.93
2018-03-29T20:43:59.834Z,25.10
2018-03-29T20:46:26.092Z,41.85
2018-03-29T20:48:52.350Z,17.62
2018-03-29T20:51:18.601Z,17.55
2018-03-29T20:53:44.912Z,13.75
2018-03-29T20:56:11.133Z,12.13
2018-03-29T20:58:37.399Z,13.82
2018-03-29T21:01:04.418Z,13.30
2018-03-29T21:03:30.729Z,13.38
2018-03-29T21:05:56.981Z,12.37
2018-03-29T21:08:23.274Z,12.10
2018-03-29T21:10:49.539Z,15.30
2018-03-29T21:13:15.756Z,11.63
2018-03-29T21:15:42.052Z,12.45
2018-03-29T21:18:08.354Z,13.73
2018-03-29T21:20:34.630Z,12.68
2018-03-29T21:23:00.868Z,13.93
2018-03-29T21:25:27.806Z,14.60
2018-03-29T21:27:54.089Z,14.82
2018-03-29T21:30:20.339Z,14.10
2018-03-29T21:32:47.662Z,12.90
2018-03-29T21:35:13.959Z,12.35
2018-03-29T21:37:40.190Z,12.65
2018-03-29T21:40:06.474Z,13.40
2018-03-29T21:42:33.409Z,11.73
2018-03-29T21:45:00.036Z,10.57
2018-03-29T21:47:26.388Z,12.25
2018-03-29T21:49:52.606Z,20.40
2018-03-29T21:52:19.246Z,12.77
2018-03-29T21:54:45.549Z,11.80
2018-03-29T21:57:11.792Z,12.50
2018-03-29T21:59:38.034Z,11.10
2018-03-29T22:02:04.655Z,11.95
2018-03-29T22:04:31.329Z,10.65
2018-03-29T22:06:57.960Z,11.98
2018-03-29T22:09:24.247Z,12.10
2018-03-29T22:11:50.472Z,14.82
2018-03-29T22:14:16.735Z,11.38
2018-03-29T22:16:43.027Z,11.45
2018-03-29T22:19:09.265Z,14.13
2018-03-29T22:21:35.535Z,12.48
2018-03-29T22:24:01.752Z,12.90
2018-03-29T22:26:28.445Z,12.80
2018-03-29T22:28:54.793Z,16.83
2018-03-29T22:31:21.039Z,11.75
2018-03-29T22:33:48.415Z,16.35
2018-03-29T22:36:14.660Z,12.77
2018-03-29T22:38:40.918Z,15.93
2018-03-29T22:41:07.141Z,12.70
2018-03-29T22:43:33.412Z,12.15
2018-03-29T22:45:59.994Z,14.23
2018-03-29T22:48:26.237Z,12.20
2018-03-29T22:50:53.234Z,13.32
2018-03-29T22:53:19.827Z,11.82
2018-03-29T22:55:46.095Z,12.40
2018-03-29T22:58:12.361Z,12.73
2018-03-29T23:00:38.613Z,12.82
2018-03-29T23:03:04.837Z,12.40
2018-03-29T23:05:31.074Z,11.85
2018-03-29T23:07:57.331Z,13.35
2018-03-29T23:10:23.906Z,13.20
2018-03-29T23:12:50.165Z,14.50
2018-03-29T23:15:17.374Z,15.45
2018-03-29T23:17:43.633Z,14.55
2018-03-29T23:20:09.908Z,12.68
2018-03-29T23:22:36.495Z,11.77
2018-03-29T23:25:02.772Z,13.82
2018-03-29T23:27:29.371Z,14.95
2018-03-29T23:29:55.654Z,13.80
2018-03-29T23:32:21.870Z,15.32
2018-03-29T23:34:48.482Z,16.83
2018-03-29T23:37:15.319Z,15.75
2018-03-29T23:39:41.547Z,17.27
2018-03-29T23:42:07.804Z,16.92
2018-03-29T23:44:34.464Z,15.70
2018-03-29T23:47:00.706Z,15.50
2018-03-29T23:49:26.948Z,14.63
2018-03-29T23:51:53.185Z,12.57
2018-03-29T23:54:19.421Z,13.93
2018-03-29T23:56:45.683Z,13.05
2018-03-29T23:59:11.956Z,14.48
